createdAt,value
2022-12-20T00:01:52.476Z,47.80
2022-12-20T00:04:20.459Z,51.40
2022-12-20T00:06:48.610Z,47.80
2022-12-20T00:09:16.929Z,44.50
2022-12-20T00:11:45.071Z,47.70
2022-12-20T00:14:13.052Z,49.80
2022-12-20T00:16:41.003Z,47.60
2022-12-20T00:19:11.393Z,43.90
2022-12-20T00:21:39.563Z,45.40
2022-12-20T00:24:07.776Z,45.10
2022-12-20T00:26:36.223Z,46.70
2022-12-20T00:29:05.393Z,47.70
2022-12-20T00:31:33.826Z,45.90
2022-12-20T00:34:02.219Z,46.10
2022-12-20T00:36:32.568Z,47.00
2022-12-20T00:39:01.594Z,45.50
2022-12-20T00:41:33.499Z,45.60
2022-12-20T00:44:03.082Z,45.50
2022-12-20T00:46:32.366Z,49.90
2022-12-20T00:49:00.648Z,46.40
2022-12-20T00:51:30.107Z,45.30
2022-12-20T00:53:58.227Z,47.20
2022-12-20T00:56:26.498Z,46.80
2022-12-20T00:58:59.823Z,47.00
2022-12-20T01:01:31.032Z,45.70
2022-12-20T01:03:59.271Z,46.80
2022-12-20T01:06:28.107Z,43.10
2022-12-20T01:08:57.184Z,47.10
2022-12-20T01:11:30.581Z,47.10
2022-12-20T01:14:02.167Z,43.70
2022-12-20T01:16:33.341Z,46.70
2022-12-20T01:19:01.760Z,47.70
2022-12-20T01:21:29.980Z,44.40
2022-12-20T01:23:58.072Z,42.70
2022-12-20T01:26:28.950Z,43.10
2022-12-20T01:28:59.845Z,47.40
2022-12-20T01:31:29.082Z,46.00
2022-12-20T01:33:57.815Z,43.40
2022-12-20T01:36:32.415Z,42.80
2022-12-20T01:39:04.609Z,45.80
2022-12-20T01:41:33.806Z,44.20
2022-12-20T01:44:03.514Z,43.00
2022-12-20T01:46:34.289Z,42.40
2022-12-20T01:49:24.284Z,43.10
2022-12-20T01:51:58.188Z,38.50
2022-12-20T01:54:31.719Z,41.80
2022-12-20T01:57:03.819Z,39.60
2022-12-20T01:59:35.560Z,41.10
2022-12-20T02:02:07.785Z,41.70
2022-12-20T02:04:38.723Z,40.70
2022-12-20T02:07:08.726Z,41.20
2022-12-20T02:09:38.801Z,41.70
2022-12-20T02:12:15.519Z,39.20
2022-12-20T02:15:18.073Z,42.10
2022-12-20T02:17:55.555Z,43.00
2022-12-20T02:20:38.673Z,41.70
2022-12-20T02:23:35.279Z,39.50
2022-12-20T02:26:21.833Z,38.20
2022-12-20T02:29:08.211Z,41.30
2022-12-20T02:31:46.720Z,42.00
2022-12-20T02:34:17.482Z,40.40
2022-12-20T02:36:45.633Z,39.60
2022-12-20T02:39:16.999Z,39.00
2022-12-20T02:42:12.068Z,39.20
2022-12-20T02:45:05.076Z,40.60
2022-12-20T02:48:10.840Z,39.30
2022-12-20T02:50:44.667Z,39.10
2022-12-20T02:53:13.866Z,39.30
2022-12-20T02:55:54.107Z,40.00
2022-12-20T02:58:30.091Z,38.20
2022-12-20T03:01:04.564Z,39.30
2022-12-20T03:03:34.728Z,39.60
2022-12-20T03:06:02.886Z,40.30
2022-12-20T03:08:31.424Z,38.10
2022-12-20T03:10:59.794Z,39.10
2022-12-20T03:13:28.934Z,38.70
2022-12-20T03:16:00.905Z,39.10
2022-12-20T03:18:29.122Z,41.10
2022-12-20T03:20:57.024Z,38.20
2022-12-20T03:23:24.835Z,38.30
2022-12-20T03:25:53.074Z,40.00
2022-12-20T03:28:28.335Z,42.50
2022-12-20T03:30:56.778Z,38.30
2022-12-20T03:33:24.787Z,37.80
2022-12-20T03:35:53.134Z,40.00
2022-12-20T03:38:22.262Z,40.00
2022-12-20T03:40:50.479Z,40.60
2022-12-20T03:43:20.923Z,37.60
2022-12-20T03:45:48.988Z,39.40
2022-12-20T03:48:17.117Z,42.50
2022-12-20T03:50:45.132Z,40.80
2022-12-20T03:53:13.240Z,37.50
2022-12-20T03:55:45.180Z,35.50
2022-12-20T03:58:13.915Z,38.50
2022-12-20T04:00:42.276Z,39.20
2022-12-20T04:03:30.446Z,37.70
2022-12-20T04:05:58.365Z,39.30
2022-12-20T04:08:26.289Z,43.40
2022-12-20T04:11:13.064Z,41.50
2022-12-20T04:14:01.064Z,42.90
2022-12-20T04:16:30.345Z,44.40
2022-12-20T04:18:58.531Z,44.90
2022-12-20T04:21:32.525Z,44.80
2022-12-20T04:24:02.315Z,43.40
2022-12-20T04:26:38.653Z,41.10
2022-12-20T04:29:06.856Z,42.60
2022-12-20T04:31:35.197Z,42.20
2022-12-20T04:34:03.383Z,42.10
2022-12-20T04:36:32.583Z,38.50
2022-12-20T04:39:01.005Z,39.50
2022-12-20T04:41:31.203Z,41.10
2022-12-20T04:44:02.130Z,41.00
2022-12-20T04:46:35.821Z,39.30
2022-12-20T04:49:04.434Z,38.20
2022-12-20T04:51:34.372Z,37.60
2022-12-20T04:54:02.588Z,41.30
2022-12-20T04:56:45.085Z,40.90
2022-12-20T04:59:16.746Z,38.40
2022-12-20T05:01:46.486Z,40.00
2022-12-20T05:04:18.428Z,39.00
2022-12-20T05:06:48.323Z,39.40
2022-12-20T05:09:16.874Z,38.40
2022-12-20T05:11:45.355Z,37.60
2022-12-20T05:14:13.636Z,40.50
2022-12-20T05:16:41.997Z,41.20
2022-12-20T05:19:10.659Z,36.80
2022-12-20T05:21:58.801Z,35.40
2022-12-20T05:24:45.588Z,39.30
2022-12-20T05:27:30.650Z,39.10
2022-12-20T05:29:59.090Z,41.20
2022-12-20T05:32:29.257Z,37.20
2022-12-20T05:34:57.407Z,35.70
2022-12-20T05:37:26.751Z,38.40
2022-12-20T05:39:55.935Z,39.80
2022-12-20T05:42:24.202Z,36.10
2022-12-20T05:44:53.001Z,37.80
2022-12-20T05:47:22.409Z,39.30
2022-12-20T05:49:55.813Z,37.20
2022-12-20T05:52:24.030Z,42.30
2022-12-20T05:54:53.563Z,43.20
2022-12-20T05:57:27.703Z,45.00
2022-12-20T05:59:56.633Z,42.70
2022-12-20T06:02:25.990Z,43.60
2022-12-20T06:05:02.978Z,39.60
2022-12-20T06:07:34.005Z,39.90
2022-12-20T06:10:02.669Z,43.00
2022-12-20T06:12:51.636Z,45.00
2022-12-20T06:15:20.676Z,47.20
2022-12-20T06:17:49.094Z,43.30
2022-12-20T06:20:18.135Z,47.30
2022-12-20T06:22:48.360Z,45.80
2022-12-20T06:25:17.520Z,45.70
2022-12-20T06:27:45.670Z,41.70
2022-12-20T06:30:16.722Z,41.60
2022-12-20T06:32:53.744Z,39.30
2022-12-20T06:35:22.290Z,41.40
2022-12-20T06:37:50.815Z,40.80
2022-12-20T06:40:19.476Z,38.80
2022-12-20T06:42:47.387Z,41.70
2022-12-20T06:45:16.803Z,41.50
2022-12-20T06:47:45.719Z,44.60
2022-12-20T06:50:13.994Z,41.20
2022-12-20T06:52:43.488Z,42.30
2022-12-20T06:55:43.081Z,45.60
2022-12-20T06:58:11.859Z,45.80
2022-12-20T07:00:40.041Z,50.40
2022-12-20T07:03:08.291Z,43.90
2022-12-20T07:05:36.757Z,47.30
2022-12-20T07:08:06.062Z,44.70
2022-12-20T07:10:37.030Z,49.70
2022-12-20T07:13:05.445Z,49.90
2022-12-20T07:15:33.936Z,50.20
2022-12-20T07:18:02.145Z,51.80
2022-12-20T07:20:30.803Z,57.70
2022-12-20T07:23:17.624Z,53.20
2022-12-20T07:25:55.941Z,57.90
2022-12-20T07:28:26.140Z,45.30
2022-12-20T07:30:55.052Z,51.50
2022-12-20T07:33:24.427Z,52.00
2022-12-20T07:36:01.060Z,54.80
2022-12-20T07:38:30.160Z,50.60
2022-12-20T07:40:58.631Z,47.60
2022-12-20T07:43:26.742Z,51.20
2022-12-20T07:45:58.069Z,46.80
2022-12-20T07:48:26.066Z,48.70
2022-12-20T07:51:01.280Z,46.70
2022-12-20T07:53:33.491Z,51.60
2022-12-20T07:56:02.771Z,47.60
2022-12-20T07:58:32.743Z,58.00
2022-12-20T08:01:02.049Z,47.20
2022-12-20T08:03:36.550Z,48.30
2022-12-20T08:06:06.726Z,49.90
2022-12-20T08:08:38.793Z,50.20
2022-12-20T08:11:10.469Z,52.90
2022-12-20T08:13:45.932Z,48.00
2022-12-20T08:16:14.695Z,47.50
2022-12-20T08:18:42.846Z,50.90
2022-12-20T08:21:13.012Z,47.40
2022-12-20T08:23:41.385Z,43.30
2022-12-20T08:26:09.280Z,43.30
2022-12-20T08:28:38.137Z,43.20
2022-12-20T08:31:08.241Z,47.70
2022-12-20T08:33:38.163Z,45.60
2022-12-20T08:36:12.707Z,42.70
2022-12-20T08:38:41.039Z,41.50
2022-12-20T08:41:11.515Z,43.50
2022-12-20T08:43:40.681Z,43.10
2022-12-20T08:46:10.352Z,44.60
2022-12-20T08:48:38.327Z,47.00
2022-12-20T08:51:09.854Z,44.60
2022-12-20T08:53:39.503Z,45.80
2022-12-20T08:56:13.302Z,47.20
2022-12-20T08:58:44.959Z,43.30
2022-12-20T09:01:15.800Z,46.00
2022-12-20T09:03:44.811Z,47.80
2022-12-20T09:06:15.911Z,47.50
2022-12-20T09:08:44.092Z,51.10
2022-12-20T09:11:15.112Z,49.60
2022-12-20T09:13:45.855Z,46.80
2022-12-20T09:16:16.456Z,53.40
2022-12-20T09:18:44.611Z,58.40
2022-12-20T09:21:12.559Z,58.30
2022-12-20T09:23:41.035Z,50.50
2022-12-20T09:26:17.252Z,53.70
2022-12-20T09:28:46.489Z,53.50
2022-12-20T09:31:26.550Z,50.60
2022-12-20T09:33:59.751Z,53.50
2022-12-20T09:36:29.295Z,47.80
2022-12-20T09:38:58.184Z,49.70
2022-12-20T09:41:43.284Z,51.10
2022-12-20T09:44:26.360Z,50.90
2022-12-20T09:46:58.518Z,50.00
2022-12-20T09:49:32.022Z,45.50
2022-12-20T09:52:21.858Z,43.90
2022-12-20T09:55:09.307Z,45.80
2022-12-20T09:58:08.233Z,47.50
2022-12-20T10:00:41.522Z,48.20
2022-12-20T10:03:18.563Z,47.50
2022-12-20T10:06:02.928Z,49.50
2022-12-20T10:08:47.270Z,48.40
2022-12-20T10:11:21.845Z,46.00
2022-12-20T10:14:37.468Z,49.90
2022-12-20T10:17:13.311Z,46.30
2022-12-20T10:20:09.002Z,53.20
2022-12-20T10:22:50.774Z,59.40
2022-12-20T10:25:25.215Z,57.80
2022-12-20T10:27:57.158Z,58.20
2022-12-20T10:30:27.566Z,55.40
2022-12-20T10:32:58.053Z,57.70
2022-12-20T10:35:33.243Z,54.30
2022-12-20T10:38:10.127Z,57.00
2022-12-20T10:43:43.130Z,56.80
2022-12-20T10:46:13.482Z,58.00
2022-12-20T10:48:43.816Z,57.50
2022-12-20T10:51:20.775Z,57.90
2022-12-20T10:53:56.681Z,56.70
2022-12-20T10:56:31.905Z,54.00
2022-12-20T10:59:21.345Z,55.40
2022-12-20T11:01:50.187Z,53.70
2022-12-20T11:04:42.250Z,53.00
2022-12-20T11:07:26.227Z,52.80
2022-12-20T11:10:00.700Z,53.10
2022-12-20T11:12:29.412Z,51.10
2022-12-20T11:15:19.782Z,54.20
2022-12-20T11:17:54.415Z,52.80
2022-12-20T11:20:32.602Z,55.40
2022-12-20T11:23:47.027Z,52.50
2022-12-20T11:26:30.616Z,51.60
2022-12-20T11:29:04.713Z,52.50
2022-12-20T11:31:42.923Z,50.70
2022-12-20T11:34:16.751Z,43.40
2022-12-20T11:37:18.170Z,47.30
2022-12-20T11:40:17.081Z,47.50
2022-12-20T11:42:51.379Z,44.60
2022-12-20T11:45:28.100Z,47.10
2022-12-20T11:48:09.959Z,52.90
2022-12-20T11:50:59.270Z,48.90
2022-12-20T11:53:40.927Z,49.90
2022-12-20T11:56:44.370Z,49.50
2022-12-20T11:59:27.105Z,46.80
2022-12-20T12:02:21.121Z,50.50
2022-12-20T12:05:07.814Z,55.30
2022-12-20T12:07:41.451Z,51.00
2022-12-20T12:10:23.613Z,47.80
2022-12-20T12:13:07.296Z,53.70
2022-12-20T12:15:57.616Z,51.30
2022-12-20T12:18:31.377Z,53.00
2022-12-20T12:21:09.464Z,52.60
2022-12-20T12:24:14.566Z,52.70
2022-12-20T12:26:42.504Z,54.80
2022-12-20T12:29:13.949Z,54.30
2022-12-20T12:32:00.720Z,54.00
2022-12-20T12:35:26.183Z,56.20
2022-12-20T12:38:15.709Z,57.50
2022-12-20T12:41:02.766Z,59.90
2022-12-20T12:43:51.749Z,62.10
2022-12-20T12:46:24.179Z,57.00
2022-12-20T12:49:04.409Z,55.40
2022-12-20T12:51:40.253Z,59.60
2022-12-20T12:54:10.089Z,65.10
2022-12-20T12:56:44.708Z,69.50
2022-12-20T12:59:35.443Z,64.30
2022-12-20T13:02:06.849Z,59.00
2022-12-20T13:04:54.586Z,62.00
2022-12-20T13:07:25.940Z,58.80
2022-12-20T13:09:54.670Z,57.10
2022-12-20T13:12:38.249Z,53.30
2022-12-20T13:15:21.571Z,57.10
2022-12-20T13:17:53.021Z,55.10
2022-12-20T13:20:30.008Z,58.30
2022-12-20T13:23:13.309Z,54.70
2022-12-20T13:25:45.835Z,56.10
2022-12-20T13:28:17.226Z,63.50
2022-12-20T13:30:47.791Z,63.60
2022-12-20T13:33:19.395Z,59.00
2022-12-20T13:35:56.450Z,55.80
2022-12-20T13:38:43.157Z,58.70
2022-12-20T13:41:25.002Z,59.10
2022-12-20T13:43:59.165Z,68.10
2022-12-20T13:46:31.250Z,78.30
2022-12-20T13:49:10.852Z,71.80
2022-12-20T13:51:39.744Z,72.40
2022-12-20T13:54:25.076Z,64.00
2022-12-20T13:56:57.433Z,61.00
2022-12-20T13:59:31.848Z,65.20
2022-12-20T14:02:04.573Z,58.10
2022-12-20T14:04:43.476Z,61.60
2022-12-20T14:07:16.697Z,57.80
2022-12-20T14:09:47.748Z,57.30
2022-12-20T14:12:26.213Z,59.40
2022-12-20T14:14:57.896Z,59.10
2022-12-20T14:17:32.403Z,61.00
2022-12-20T14:20:14.215Z,60.40
2022-12-20T14:22:47.705Z,59.70
2022-12-20T14:25:31.367Z,58.90
2022-12-20T14:28:00.236Z,60.60
2022-12-20T14:30:43.006Z,57.50
2022-12-20T14:33:21.849Z,57.20
2022-12-20T14:35:51.889Z,57.30
2022-12-20T14:38:29.188Z,62.70
2022-12-20T14:40:57.813Z,62.10
2022-12-20T14:43:37.255Z,59.40
2022-12-20T14:46:23.988Z,59.70
2022-12-20T14:49:32.968Z,64.20
2022-12-20T14:52:12.358Z,66.10
2022-12-20T14:57:36.424Z,64.40
2022-12-20T15:00:16.070Z,63.50
2022-12-20T15:03:01.093Z,56.20
2022-12-20T15:05:41.383Z,59.80
2022-12-20T15:08:14.322Z,60.60
2022-12-20T15:10:52.502Z,61.00
2022-12-20T15:13:36.746Z,62.70
2022-12-20T15:16:08.373Z,58.60
2022-12-20T15:18:37.470Z,57.20
2022-12-20T15:21:15.130Z,62.30
2022-12-20T15:23:48.389Z,67.50
2022-12-20T15:26:18.714Z,61.60
2022-12-20T15:28:47.550Z,66.80
2022-12-20T15:31:23.761Z,60.30
2022-12-20T15:33:58.225Z,61.50
2022-12-20T15:36:29.185Z,67.40
2022-12-20T15:39:15.647Z,62.60
2022-12-20T15:41:48.105Z,63.40
2022-12-20T15:44:20.050Z,58.60
2022-12-20T15:46:49.020Z,61.20
2022-12-20T15:49:19.506Z,67.10
2022-12-20T15:51:50.432Z,62.00
2022-12-20T15:54:22.982Z,63.90
2022-12-20T15:56:51.658Z,60.60
2022-12-20T15:59:57.788Z,62.90
2022-12-20T16:02:31.656Z,62.10
2022-12-20T16:05:02.131Z,68.30
2022-12-20T16:07:32.195Z,73.20
2022-12-20T16:10:01.095Z,71.40
2022-12-20T16:12:35.596Z,73.40
2022-12-20T16:15:05.484Z,74.10
2022-12-20T16:17:33.830Z,75.80
2022-12-20T16:20:02.245Z,78.20
2022-12-20T16:22:36.165Z,71.90
2022-12-20T16:25:07.632Z,74.40
2022-12-20T16:27:37.379Z,73.30
2022-12-20T16:30:07.068Z,71.90
2022-12-20T16:32:37.470Z,72.20
2022-12-20T16:35:07.364Z,68.80
2022-12-20T16:37:41.508Z,68.90
2022-12-20T16:40:16.033Z,64.20
2022-12-20T16:42:46.402Z,63.90
2022-12-20T16:45:22.091Z,65.20
2022-12-20T16:47:51.676Z,62.80
2022-12-20T16:50:25.192Z,64.40
2022-12-20T16:52:59.294Z,63.70
2022-12-20T16:55:29.633Z,64.30
2022-12-20T16:58:01.296Z,64.40
2022-12-20T17:00:30.812Z,65.70
2022-12-20T17:03:00.821Z,58.70
2022-12-20T17:05:37.669Z,62.30
2022-12-20T17:10:54.234Z,60.20
2022-12-20T17:13:23.779Z,59.80
2022-12-20T17:15:53.137Z,62.00
2022-12-20T17:18:22.116Z,60.00
2022-12-20T17:20:51.254Z,60.30
2022-12-20T17:26:06.072Z,64.10
2022-12-20T17:28:34.585Z,63.50
2022-12-20T17:31:08.015Z,64.20
2022-12-20T17:33:39.690Z,58.40
2022-12-20T17:36:08.681Z,58.60
2022-12-20T17:38:37.249Z,60.30
2022-12-20T17:41:06.050Z,61.80
2022-12-20T17:43:34.042Z,61.20
2022-12-20T17:46:02.706Z,56.40
2022-12-20T17:48:33.998Z,59.20
2022-12-20T17:51:17.861Z,61.80
2022-12-20T17:53:47.911Z,60.20
2022-12-20T17:56:37.234Z,63.40
2022-12-20T17:59:05.860Z,59.70
2022-12-20T18:01:35.935Z,61.50
2022-12-20T18:04:13.543Z,56.20
2022-12-20T18:06:44.369Z,56.20
2022-12-20T18:09:21.795Z,58.70
2022-12-20T18:11:50.145Z,57.20
2022-12-20T18:14:19.723Z,60.10
2022-12-20T18:16:50.202Z,54.70
2022-12-20T18:19:19.770Z,56.00
2022-12-20T18:21:49.594Z,60.90
2022-12-20T18:24:22.616Z,59.80
2022-12-20T18:26:53.661Z,61.50
2022-12-20T18:29:23.389Z,60.60
2022-12-20T18:31:52.720Z,61.40
2022-12-20T18:34:23.620Z,62.40
2022-12-20T18:36:53.681Z,64.40
2022-12-20T18:39:22.753Z,65.80
2022-12-20T18:41:52.263Z,70.40
2022-12-20T18:44:28.198Z,61.30
2022-12-20T18:47:01.952Z,62.90
2022-12-20T18:49:33.847Z,66.40
2022-12-20T18:52:03.308Z,62.50
2022-12-20T18:54:32.465Z,67.80
2022-12-20T18:57:06.925Z,58.80
2022-12-20T18:59:37.399Z,59.00
2022-12-20T19:02:10.170Z,59.20
2022-12-20T19:04:41.229Z,59.30
2022-12-20T19:07:11.638Z,57.60
2022-12-20T19:09:41.054Z,56.00
2022-12-20T19:12:12.924Z,57.20
2022-12-20T19:14:41.647Z,59.60
2022-12-20T19:17:17.319Z,60.00
2022-12-20T19:19:48.591Z,57.80
2022-12-20T19:22:19.001Z,56.80
2022-12-20T19:24:48.832Z,59.40
2022-12-20T19:27:17.598Z,54.00
2022-12-20T19:29:47.217Z,54.40
2022-12-20T19:32:16.179Z,56.00
2022-12-20T19:34:45.215Z,59.30
2022-12-20T19:37:14.900Z,56.60
2022-12-20T19:39:44.320Z,57.50
2022-12-20T19:42:24.298Z,56.70
2022-12-20T19:44:53.999Z,60.40
2022-12-20T19:47:25.513Z,59.00
2022-12-20T19:49:54.513Z,66.60
2022-12-20T19:52:29.805Z,62.70
2022-12-20T19:54:59.652Z,60.40
2022-12-20T19:57:28.475Z,55.30
2022-12-20T19:59:57.993Z,59.40
2022-12-20T20:02:27.075Z,60.00
2022-12-20T20:04:56.348Z,63.10
2022-12-20T20:07:24.965Z,65.80
2022-12-20T20:09:53.577Z,61.50
2022-12-20T20:12:23.107Z,58.50
2022-12-20T20:14:53.329Z,65.90
2022-12-20T20:17:22.402Z,67.00
2022-12-20T20:19:53.540Z,65.90
2022-12-20T20:22:23.289Z,63.40
2022-12-20T20:24:52.551Z,62.40
2022-12-20T20:27:21.183Z,60.10
2022-12-20T20:29:51.307Z,60.70
2022-12-20T20:32:20.544Z,62.60
2022-12-20T20:34:50.571Z,60.70
2022-12-20T20:37:19.729Z,57.70
2022-12-20T20:39:48.946Z,55.10
2022-12-20T20:42:23.040Z,59.60
2022-12-20T20:44:53.072Z,58.00
2022-12-20T20:47:21.845Z,61.40
2022-12-20T20:49:52.877Z,56.80
2022-12-20T20:52:22.022Z,54.20
2022-12-20T20:54:50.878Z,56.10
2022-12-20T20:57:19.033Z,54.20
2022-12-20T20:59:48.072Z,57.60
2022-12-20T21:02:21.730Z,50.20
2022-12-20T21:05:24.596Z,55.70
2022-12-20T21:07:40.065Z,57.00
2022-12-20T21:10:09.150Z,59.30
2022-12-20T21:12:37.736Z,60.30
2022-12-20T21:15:24.812Z,57.20
2022-12-20T21:17:53.896Z,59.40
2022-12-20T21:20:26.463Z,62.20
2022-12-20T21:22:56.455Z,60.60
2022-12-20T21:25:27.070Z,61.60
2022-12-20T21:27:57.247Z,57.90
2022-12-20T21:30:26.144Z,54.80
2022-12-20T21:32:54.912Z,58.60
2022-12-20T21:35:24.244Z,56.20
2022-12-20T21:37:53.557Z,57.60
2022-12-20T21:40:22.267Z,53.20
2022-12-20T21:42:51.129Z,53.70
2022-12-20T21:45:20.313Z,51.60
2022-12-20T21:47:49.001Z,54.10
2022-12-20T21:50:17.357Z,54.20
2022-12-20T21:52:45.708Z,50.70
2022-12-20T21:55:15.143Z,50.20
2022-12-20T21:57:44.135Z,48.20
2022-12-20T22:00:13.195Z,54.70
2022-12-20T22:02:41.620Z,52.10
2022-12-20T22:05:13.574Z,54.20
2022-12-20T22:07:42.069Z,51.50
2022-12-20T22:10:10.628Z,55.80
2022-12-20T22:12:38.916Z,55.10
2022-12-20T22:15:07.948Z,63.80
2022-12-20T22:17:36.935Z,59.50
2022-12-20T22:20:08.762Z,56.50
2022-12-20T22:22:37.801Z,58.70
2022-12-20T22:25:06.635Z,57.40
2022-12-20T22:27:35.547Z,60.20
2022-12-20T22:30:04.789Z,61.40
2022-12-20T22:32:32.866Z,61.70
2022-12-20T22:35:01.067Z,59.30
2022-12-20T22:37:29.671Z,57.00
2022-12-20T22:39:57.612Z,58.70
2022-12-20T22:42:25.901Z,59.10
2022-12-20T22:44:54.373Z,60.10
2022-12-20T22:47:25.108Z,63.60
2022-12-20T22:49:53.420Z,55.90
2022-12-20T22:52:21.891Z,55.70
2022-12-20T22:54:50.080Z,55.00
2022-12-20T22:57:18.058Z,58.10
2022-12-20T22:59:46.438Z,55.30
2022-12-20T23:02:14.619Z,57.60
2022-12-20T23:04:42.731Z,52.90
2022-12-20T23:07:10.774Z,54.20
2022-12-20T23:09:38.787Z,56.10
2022-12-20T23:12:26.709Z,62.20
2022-12-20T23:15:26.666Z,61.80
2022-12-20T23:17:54.770Z,55.50
2022-12-20T23:20:41.288Z,51.60
2022-12-20T23:23:09.823Z,53.70
2022-12-20T23:25:37.787Z,52.60
2022-12-20T23:28:05.776Z,52.60
2022-12-20T23:30:33.895Z,56.40
2022-12-20T23:33:03.081Z,53.10
2022-12-20T23:35:31.212Z,57.00
2022-12-20T23:38:00.439Z,52.50
2022-12-20T23:40:28.468Z,55.30
2022-12-20T23:42:56.542Z,57.10
2022-12-20T23:45:24.746Z,50.30
2022-12-20T23:47:52.998Z,53.30
2022-12-20T23:50:23.205Z,52.20
2022-12-20T23:52:51.186Z,56.20
2022-12-20T23:55:19.182Z,55.60
2022-12-20T23:57:47.184Z,53.40
